To NAV CANADA Home Page Login to a new session Search on AWWS site Feedback and Comments Disclaimer Vers la page française équivalente Tips FAQ What's new on the site To the Forecasts and Observations / NOTAM section To "File a Flight Plan" website Publications and other links Update of the User's profile FIC Telephone Numbers My Weather Data Folder Route Weather Data Regional Weather Data Local Weather Data To the Forecasts and Observations / NOTAM section
Request Generated 03/03/2015 at 04:39:59 UTC . Weather information available at that time is displayed.

METAR/TAF

HAMILTON/ON    

METAR CYHM 030400Z 21004KT 15SM SKC M13/M16 A3040 RMK SLP309=
METAR CYHM 030300Z 19004KT 15SM SKC M11/M16 A3040 RMK SLP310=
METAR CYHM 030200Z 20004KT 15SM FEW030 M10/M15 A3041 RMK SC1 SC TR
SLP313=

TAF CYHM 022338Z 0300/0324 28008KT P6SM SKC
BECMG 0300/0302 VRB03KT
FM031000 16010KT P6SM OVC120
FM031500 14012KT 5SM -SN OVC070
FM031700 15015KT 3/4SM -SN BLSN OVC030
FM032000 15012KT 11/2SM -SN -PL OVC012
FM032200 16015KT 2SM -FZRA BR OVC010
RMK NXT FCST BY 030600Z=
Your time UTC time
Weather data provided by Environment Canada and NAV CANADA